Wildrose, North Dakota
Current Conditions -  °F | °C
As of 5:55 AM on Friday 24 Oct 2014 (Local Time) from KD60 Reporting Station
Clear Clear  
Wind Chill: 39°   Ceiling: Unl
Heat Index: 39°   Visibility: 10mi
Dew Point: 37°   Wind: 3mph
Humidity: 93%   Direction: 260°W
Pressure: 29.83"   Gusts: NA
Location:  48.63°N, 103.18°W
Report Text: KD60 241055Z AUTO 26003KT 10SM CLR 04/03 A2983 RMK AO2
Loading
Personal Weather Stations






























Interactive Weather Map New forecast layout! Learn more

10-Day Weather Forecast

Advertisements
Track Severe Weather on mobile